createdAt,value
2017-05-17T00:00:53.054Z,0
2017-05-17T00:02:03.326Z,0
2017-05-17T00:03:12.817Z,0
2017-05-17T00:04:23.128Z,0
2017-05-17T00:05:33.881Z,0
2017-05-17T00:06:44.139Z,0
2017-05-17T00:07:55.937Z,0
2017-05-17T00:09:07.101Z,0
2017-05-17T00:10:18.028Z,0
2017-05-17T00:11:28.969Z,0
2017-05-17T00:12:38.339Z,0
2017-05-17T00:13:47.303Z,0
2017-05-17T00:14:56.608Z,0
2017-05-17T00:16:05.867Z,0
2017-05-17T00:17:14.829Z,0
2017-05-17T00:18:23.789Z,0
2017-05-17T00:19:32.756Z,0
2017-05-17T00:20:41.716Z,0
2017-05-17T00:21:51.033Z,0
2017-05-17T00:23:00.003Z,0
2017-05-17T00:24:09.055Z,0
2017-05-17T00:25:18.018Z,0
2017-05-17T00:26:26.981Z,0
2017-05-17T00:27:36.854Z,0
2017-05-17T00:28:45.822Z,0
2017-05-17T00:29:54.784Z,0
2017-05-17T00:31:03.748Z,0
2017-05-17T00:32:12.710Z,0
2017-05-17T00:33:22.025Z,0
2017-05-17T00:34:30.990Z,0
2017-05-17T00:35:39.954Z,0
2017-05-17T00:36:48.921Z,0
2017-05-17T00:37:57.883Z,0
2017-05-17T00:39:07.154Z,0
2017-05-17T00:40:16.113Z,0
2017-05-17T00:41:25.074Z,0
2017-05-17T00:42:34.045Z,0
2017-05-17T00:43:43.005Z,0
2017-05-17T00:44:52.272Z,0
2017-05-17T00:46:01.232Z,0
2017-05-17T00:47:10.197Z,0
2017-05-17T00:48:19.158Z,0
2017-05-17T00:49:28.311Z,0
2017-05-17T00:50:37.661Z,0
2017-05-17T00:51:46.621Z,0
2017-05-17T00:52:55.584Z,0
2017-05-17T00:54:04.556Z,0
2017-05-17T00:55:13.514Z,0
2017-05-17T00:56:22.819Z,0
2017-05-17T00:57:31.863Z,0
2017-05-17T00:58:40.827Z,0
2017-05-17T00:59:49.877Z,0
2017-05-17T01:00:58.838Z,0
2017-05-17T01:02:08.049Z,0
2017-05-17T01:03:17.335Z,0
2017-05-17T01:04:26.301Z,0
2017-05-17T01:05:35.269Z,0
2017-05-17T01:06:44.230Z,0
2017-05-17T01:07:53.583Z,0
2017-05-17T01:09:02.553Z,0
2017-05-17T01:10:11.525Z,0
2017-05-17T01:11:20.488Z,0
2017-05-17T01:12:29.454Z,0
2017-05-17T01:13:38.711Z,0
2017-05-17T01:14:47.680Z,0
2017-05-17T01:15:56.963Z,0
2017-05-17T01:17:05.922Z,0
2017-05-17T01:18:14.882Z,0
2017-05-17T01:19:24.144Z,0
2017-05-17T01:20:33.107Z,0
2017-05-17T01:21:42.066Z,0
2017-05-17T01:22:51.028Z,0
2017-05-17T01:23:59.992Z,0
2017-05-17T01:25:09.338Z,0
2017-05-17T01:26:18.310Z,0
2017-05-17T01:27:27.271Z,0
2017-05-17T01:28:36.323Z,0
2017-05-17T01:29:45.286Z,0
2017-05-17T01:30:54.633Z,0
2017-05-17T01:32:03.595Z,0
2017-05-17T01:33:12.554Z,0
2017-05-17T01:34:21.933Z,0
2017-05-17T01:35:30.896Z,0
2017-05-17T01:36:40.165Z,0
2017-05-17T01:37:49.128Z,0
2017-05-17T01:38:58.092Z,0
2017-05-17T01:40:07.057Z,0
2017-05-17T01:41:16.017Z,0
2017-05-17T01:42:25.279Z,0
2017-05-17T01:43:34.247Z,0
2017-05-17T01:44:43.533Z,0
2017-05-17T01:45:52.496Z,0
2017-05-17T01:47:01.460Z,0
2017-05-17T01:48:10.821Z,0
2017-05-17T01:49:19.777Z,0
2017-05-17T01:50:28.735Z,0
2017-05-17T01:51:37.789Z,0
2017-05-17T01:52:46.773Z,0
2017-05-17T01:53:56.033Z,0
2017-05-17T01:55:04.998Z,0
2017-05-17T01:56:13.957Z,0
2017-05-17T01:57:22.923Z,0
2017-05-17T01:58:31.889Z,0
2017-05-17T01:59:41.106Z,0
2017-05-17T02:00:50.069Z,0
2017-05-17T02:01:59.051Z,0
2017-05-17T02:03:08.020Z,0
2017-05-17T02:04:16.983Z,0
2017-05-17T02:05:26.244Z,0
2017-05-17T02:06:35.207Z,0
2017-05-17T02:07:44.171Z,0
2017-05-17T02:08:53.139Z,0
2017-05-17T02:10:02.103Z,0
2017-05-17T02:11:11.375Z,0
2017-05-17T02:12:20.427Z,0
2017-05-17T02:13:29.387Z,0
2017-05-17T02:14:38.349Z,0
2017-05-17T02:15:47.402Z,0
2017-05-17T02:16:56.670Z,0
2017-05-17T02:18:05.632Z,0
2017-05-17T02:19:14.598Z,0
2017-05-17T02:20:23.559Z,0
2017-05-17T02:21:32.608Z,0
2017-05-17T02:22:42.195Z,0
2017-05-17T02:23:51.203Z,0
2017-05-17T02:25:00.255Z,0
2017-05-17T02:26:09.221Z,0
2017-05-17T02:27:18.182Z,0
2017-05-17T02:28:27.538Z,0
2017-05-17T02:29:36.502Z,0
2017-05-17T02:30:45.547Z,0
2017-05-17T02:31:54.525Z,0
2017-05-17T02:33:03.814Z,0
2017-05-17T02:34:13.079Z,0
2017-05-17T02:35:22.171Z,0
2017-05-17T02:36:31.131Z,0
2017-05-17T02:37:40.103Z,0
2017-05-17T02:38:49.159Z,0
2017-05-17T02:39:58.766Z,0
2017-05-17T02:41:08.053Z,0
2017-05-17T02:42:17.018Z,0
2017-05-17T02:43:25.978Z,0
2017-05-17T02:44:34.942Z,0
2017-05-17T02:45:44.209Z,0
2017-05-17T02:46:53.174Z,0
2017-05-17T02:48:02.223Z,0
2017-05-17T02:49:11.276Z,0
2017-05-17T02:50:20.419Z,0
2017-05-17T02:51:29.637Z,0
2017-05-17T02:52:38.689Z,0
2017-05-17T02:53:47.659Z,0
2017-05-17T02:54:56.629Z,0
2017-05-17T02:56:05.589Z,0
2017-05-17T02:57:14.857Z,0
2017-05-17T02:58:23.818Z,0
2017-05-17T02:59:32.775Z,0
2017-05-17T03:00:41.742Z,0
2017-05-17T03:01:50.705Z,0
2017-05-17T03:02:59.918Z,0
2017-05-17T03:04:08.882Z,0
2017-05-17T03:05:18.213Z,0
2017-05-17T03:06:27.174Z,0
2017-05-17T03:07:36.133Z,0
2017-05-17T03:08:45.447Z,0
2017-05-17T03:09:54.477Z,0
2017-05-17T03:11:03.447Z,0
2017-05-17T03:12:12.414Z,0
2017-05-17T03:13:21.379Z,0
2017-05-17T03:14:30.643Z,0
2017-05-17T03:15:39.693Z,0
2017-05-17T03:16:48.657Z,0
2017-05-17T03:17:57.628Z,0
2017-05-17T03:19:06.592Z,0
2017-05-17T03:20:15.551Z,0
2017-05-17T03:21:24.519Z,0
2017-05-17T03:22:33.481Z,0
2017-05-17T03:23:42.449Z,0
2017-05-17T03:24:51.414Z,0
2017-05-17T03:26:00.374Z,0
2017-05-17T03:27:09.334Z,0
2017-05-17T03:28:18.294Z,0
2017-05-17T03:29:27.412Z,0
2017-05-17T03:30:36.377Z,0
2017-05-17T03:31:45.479Z,0
2017-05-17T03:32:54.447Z,0
2017-05-17T03:34:03.413Z,0
2017-05-17T03:35:12.383Z,5
2017-05-17T03:36:21.394Z,5
2017-05-17T03:37:30.359Z,5
2017-05-17T03:38:39.328Z,5
2017-05-17T03:39:48.293Z,5
2017-05-17T03:40:57.257Z,5
2017-05-17T03:42:06.215Z,5
2017-05-17T03:43:15.501Z,5
2017-05-17T03:44:24.546Z,5
2017-05-17T03:45:33.506Z,5
2017-05-17T03:46:42.470Z,5
2017-05-17T03:47:51.480Z,5
2017-05-17T03:49:00.526Z,5
2017-05-17T03:50:09.488Z,5
2017-05-17T03:51:18.450Z,5
2017-05-17T03:52:27.421Z,5
2017-05-17T03:53:36.380Z,5
2017-05-17T03:54:45.393Z,5
2017-05-17T03:55:54.444Z,10
2017-05-17T03:57:03.404Z,10
2017-05-17T03:58:12.370Z,10
2017-05-17T03:59:21.354Z,10
2017-05-17T04:00:30.696Z,10
2017-05-17T04:01:39.658Z,10
2017-05-17T04:02:48.755Z,10
2017-05-17T04:03:57.723Z,10
2017-05-17T04:05:06.694Z,10
2017-05-17T04:06:15.656Z,10
2017-05-17T04:07:25.032Z,10
2017-05-17T04:08:34.000Z,10
2017-05-17T04:09:42.966Z,10
2017-05-17T04:10:51.979Z,15
2017-05-17T04:12:00.938Z,15
2017-05-17T04:13:09.902Z,15
2017-05-17T04:14:18.869Z,15
2017-05-17T04:15:27.836Z,15
2017-05-17T04:16:36.853Z,15
2017-05-17T04:17:45.871Z,15
2017-05-17T04:18:54.833Z,15
2017-05-17T04:20:03.882Z,15
2017-05-17T04:21:12.846Z,20
2017-05-17T04:22:21.810Z,20
2017-05-17T04:23:31.026Z,20
2017-05-17T04:24:39.985Z,20
2017-05-17T04:25:49.030Z,20
2017-05-17T04:26:57.996Z,20
2017-05-17T04:28:06.958Z,25
2017-05-17T04:29:16.551Z,25
2017-05-17T04:30:25.516Z,25
2017-05-17T04:31:34.563Z,20
2017-05-17T04:32:43.616Z,20
2017-05-17T04:33:52.589Z,20
2017-05-17T04:35:01.944Z,25
2017-05-17T04:36:10.910Z,25
2017-05-17T04:37:19.961Z,25
2017-05-17T04:38:28.921Z,25
2017-05-17T04:39:37.882Z,25
2017-05-17T04:40:47.181Z,25
2017-05-17T04:41:56.140Z,25
2017-05-17T04:43:05.105Z,25
2017-05-17T04:44:14.071Z,25
2017-05-17T04:45:23.039Z,25
2017-05-17T04:46:32.306Z,25
2017-05-17T04:47:41.330Z,25
2017-05-17T04:48:50.291Z,25
2017-05-17T04:49:59.339Z,20
2017-05-17T04:51:08.303Z,20
2017-05-17T04:52:17.517Z,20
2017-05-17T04:53:26.487Z,20
2017-05-17T04:54:35.457Z,20
2017-05-17T04:55:44.468Z,20
2017-05-17T04:56:53.430Z,25
2017-05-17T04:58:02.694Z,25
2017-05-17T04:59:11.989Z,25
2017-05-17T05:00:20.950Z,25
2017-05-17T05:01:29.918Z,25
2017-05-17T05:02:38.899Z,25
2017-05-17T05:03:48.108Z,25
2017-05-17T05:04:57.069Z,25
2017-05-17T05:06:06.032Z,25
2017-05-17T05:07:15.038Z,20
2017-05-17T05:08:24.011Z,20
2017-05-17T05:09:33.282Z,20
2017-05-17T05:10:42.238Z,20
2017-05-17T05:11:51.200Z,20
2017-05-17T05:13:00.163Z,20
2017-05-17T05:14:09.126Z,20
2017-05-17T05:15:18.398Z,20
2017-05-17T05:16:27.357Z,20
2017-05-17T05:17:36.320Z,20
2017-05-17T05:18:45.333Z,20
2017-05-17T05:19:54.297Z,20
2017-05-17T05:21:04.179Z,15
2017-05-17T05:22:13.148Z,15
2017-05-17T05:23:22.115Z,15
2017-05-17T05:24:31.096Z,20
2017-05-17T05:25:40.056Z,20
2017-05-17T05:26:49.408Z,20
2017-05-17T05:27:58.375Z,20
2017-05-17T05:29:07.342Z,20
2017-05-17T05:30:16.300Z,20
2017-05-17T05:31:25.264Z,20
2017-05-17T05:32:34.624Z,20
2017-05-17T05:33:43.686Z,25
2017-05-17T05:34:52.654Z,25
2017-05-17T05:36:01.679Z,30
2017-05-17T05:37:10.645Z,25
2017-05-17T05:38:19.960Z,30
2017-05-17T05:39:28.921Z,30
2017-05-17T05:40:37.883Z,30
2017-05-17T05:41:46.932Z,30
2017-05-17T05:42:55.894Z,30
2017-05-17T05:44:05.162Z,30
2017-05-17T05:45:14.134Z,30
2017-05-17T05:46:23.097Z,30
2017-05-17T05:47:32.148Z,35
2017-05-17T05:48:41.109Z,35
2017-05-17T05:49:50.457Z,35
2017-05-17T05:50:59.418Z,35
2017-05-17T05:52:08.382Z,35
2017-05-17T05:53:17.434Z,35
2017-05-17T05:54:26.400Z,35
2017-05-17T05:55:35.610Z,35
2017-05-17T05:56:44.578Z,35
2017-05-17T05:57:53.548Z,35
2017-05-17T05:59:02.511Z,35
2017-05-17T06:00:11.561Z,40
2017-05-17T06:01:20.775Z,40
2017-05-17T06:02:29.742Z,40
2017-05-17T06:03:38.711Z,40
2017-05-17T06:04:47.676Z,40
2017-05-17T06:05:56.738Z,40
2017-05-17T06:07:05.951Z,40
2017-05-17T06:08:14.908Z,40
2017-05-17T06:09:23.996Z,40
2017-05-17T06:10:32.978Z,40
2017-05-17T06:11:41.939Z,40
2017-05-17T06:12:51.149Z,40
2017-05-17T06:14:00.197Z,40
2017-05-17T06:15:09.158Z,40
2017-05-17T06:16:18.118Z,40
2017-05-17T06:17:27.082Z,40
2017-05-17T06:18:36.469Z,40
2017-05-17T06:19:45.435Z,65
2017-05-17T06:20:54.402Z,165
2017-05-17T06:22:03.370Z,225
2017-05-17T06:23:12.458Z,155
2017-05-17T06:24:22.272Z,90
2017-05-17T06:25:31.327Z,70
2017-05-17T06:26:40.376Z,80
2017-05-17T06:27:49.500Z,70
2017-05-17T06:28:58.555Z,50
2017-05-17T06:30:07.898Z,50
2017-05-17T06:31:17.097Z,50
2017-05-17T06:32:26.216Z,50
2017-05-17T06:33:35.245Z,50
2017-05-17T06:34:44.311Z,50
2017-05-17T06:35:53.581Z,50
2017-05-17T06:37:02.548Z,50
2017-05-17T06:38:12.160Z,50
2017-05-17T06:39:21.131Z,50
2017-05-17T06:40:30.190Z,50
2017-05-17T06:41:39.523Z,50
2017-05-17T06:42:48.491Z,50
2017-05-17T06:43:57.789Z,50
2017-05-17T06:45:07.185Z,50
2017-05-17T06:46:17.568Z,50
2017-05-17T06:47:30.054Z,50
2017-05-17T06:48:41.298Z,50
2017-05-17T06:49:51.334Z,50
2017-05-17T06:51:00.552Z,50
2017-05-17T06:52:10.485Z,50
2017-05-17T06:53:20.953Z,50
2017-05-17T06:54:30.180Z,55
2017-05-17T06:55:39.698Z,50
2017-05-17T06:56:49.349Z,50
2017-05-17T06:57:58.719Z,50
2017-05-17T06:59:08.534Z,50
2017-05-17T07:00:18.132Z,50
2017-05-17T07:01:28.177Z,50
2017-05-17T07:02:37.584Z,50
2017-05-17T07:03:47.064Z,50
2017-05-17T07:04:56.906Z,50
2017-05-17T07:06:06.744Z,50
2017-05-17T07:07:16.264Z,50
2017-05-17T07:08:26.130Z,50
2017-05-17T07:09:35.373Z,50
2017-05-17T07:10:45.503Z,50
2017-05-17T07:11:54.936Z,50
2017-05-17T07:13:04.378Z,50
2017-05-17T07:14:13.864Z,55
2017-05-17T07:15:23.486Z,55
2017-05-17T07:16:36.570Z,55
2017-05-17T07:17:46.203Z,55
2017-05-17T07:18:55.595Z,55
2017-05-17T07:20:05.177Z,55
2017-05-17T07:21:14.936Z,55
2017-05-17T07:22:24.693Z,55
2017-05-17T07:23:34.454Z,60
2017-05-17T07:24:43.758Z,60
2017-05-17T07:25:53.276Z,60
2017-05-17T07:27:02.769Z,55
2017-05-17T07:28:12.586Z,55
2017-05-17T07:29:21.917Z,55
2017-05-17T07:30:31.307Z,55
2017-05-17T07:31:40.933Z,55
2017-05-17T07:32:50.786Z,55
2017-05-17T07:34:00.503Z,60
2017-05-17T07:35:09.832Z,60
2017-05-17T07:36:19.343Z,60
2017-05-17T07:37:28.647Z,55
2017-05-17T07:38:38.343Z,60
2017-05-17T07:39:48.376Z,55
2017-05-17T07:40:57.733Z,60
2017-05-17T07:42:06.719Z,60
2017-05-17T07:43:15.708Z,60
2017-05-17T07:44:24.764Z,60
2017-05-17T07:45:34.069Z,60
2017-05-17T07:46:43.040Z,60
2017-05-17T07:47:52.020Z,60
2017-05-17T07:49:00.986Z,60
2017-05-17T07:50:09.953Z,60
2017-05-17T07:51:19.301Z,60
2017-05-17T07:52:28.264Z,60
2017-05-17T07:53:37.228Z,60
2017-05-17T07:54:46.186Z,65
2017-05-17T07:55:55.160Z,55
2017-05-17T07:57:04.445Z,60
2017-05-17T07:58:13.410Z,60
2017-05-17T07:59:22.379Z,65
2017-05-17T08:00:31.344Z,65
2017-05-17T08:01:40.308Z,65
2017-05-17T08:02:49.583Z,65
2017-05-17T08:03:58.550Z,65
2017-05-17T08:05:07.696Z,65
2017-05-17T08:06:16.717Z,65
2017-05-17T08:07:25.692Z,65
2017-05-17T08:08:34.956Z,65
2017-05-17T08:09:44.007Z,65
2017-05-17T08:10:52.965Z,65
2017-05-17T08:12:01.928Z,65
2017-05-17T08:13:10.892Z,65
2017-05-17T08:14:20.112Z,65
2017-05-17T08:15:29.081Z,65
2017-05-17T08:16:38.049Z,65
2017-05-17T08:17:47.103Z,65
2017-05-17T08:18:56.069Z,75
2017-05-17T08:20:05.332Z,65
2017-05-17T08:21:14.298Z,65
2017-05-17T08:22:23.263Z,65
2017-05-17T08:23:32.232Z,65
2017-05-17T08:24:41.201Z,65
2017-05-17T08:25:50.463Z,65
2017-05-17T08:26:59.428Z,65
2017-05-17T08:28:08.406Z,70
2017-05-17T08:29:17.368Z,70
2017-05-17T08:30:26.333Z,70
2017-05-17T08:31:35.549Z,70
2017-05-17T08:32:44.517Z,70
2017-05-17T08:33:53.483Z,70
2017-05-17T08:35:02.599Z,70
2017-05-17T08:36:11.567Z,70
2017-05-17T08:37:20.832Z,70
2017-05-17T08:38:29.809Z,70
2017-05-17T08:39:38.858Z,70
2017-05-17T08:40:47.829Z,70
2017-05-17T08:41:56.793Z,70
2017-05-17T08:43:06.056Z,70
2017-05-17T08:44:15.112Z,70
2017-05-17T08:45:24.081Z,70
2017-05-17T08:46:33.048Z,75
2017-05-17T08:47:42.014Z,75
2017-05-17T08:48:51.283Z,75
2017-05-17T08:50:00.254Z,70
2017-05-17T08:51:09.222Z,70
2017-05-17T08:52:18.277Z,70
2017-05-17T08:53:27.243Z,70
2017-05-17T08:54:36.471Z,70
2017-05-17T08:55:45.441Z,75
2017-05-17T08:56:54.411Z,75
2017-05-17T08:58:03.374Z,75
2017-05-17T08:59:12.344Z,80
2017-05-17T09:00:21.649Z,75
2017-05-17T09:01:30.706Z,75
2017-05-17T09:02:39.674Z,70
2017-05-17T09:03:48.640Z,75
2017-05-17T09:04:57.626Z,70
2017-05-17T09:06:06.890Z,70
2017-05-17T09:07:16.178Z,65
2017-05-17T09:08:25.147Z,70
2017-05-17T09:09:34.124Z,70
2017-05-17T09:10:43.097Z,65
2017-05-17T09:11:52.365Z,70
2017-05-17T09:13:01.429Z,65
2017-05-17T09:14:10.714Z,65
2017-05-17T09:15:19.713Z,65
2017-05-17T09:16:28.676Z,65
2017-05-17T09:17:37.990Z,65
2017-05-17T09:18:46.958Z,65
2017-05-17T09:19:56.585Z,70
2017-05-17T09:21:05.545Z,70
2017-05-17T09:22:14.520Z,70
2017-05-17T09:23:23.784Z,70
2017-05-17T09:24:32.754Z,75
2017-05-17T09:25:41.719Z,75
2017-05-17T09:26:50.693Z,80
2017-05-17T09:27:59.993Z,80
2017-05-17T09:29:09.208Z,80
2017-05-17T09:30:18.221Z,80
2017-05-17T09:31:27.190Z,80
2017-05-17T09:32:36.209Z,80
2017-05-17T09:33:45.179Z,75
2017-05-17T09:34:54.448Z,80
2017-05-17T09:36:03.417Z,80
2017-05-17T09:37:12.380Z,80
2017-05-17T09:38:21.686Z,80
2017-05-17T09:39:30.653Z,80
2017-05-17T09:40:39.868Z,85
2017-05-17T09:41:48.830Z,80
2017-05-17T09:42:57.797Z,75
2017-05-17T09:44:06.761Z,75
2017-05-17T09:45:15.720Z,75
2017-05-17T09:46:25.309Z,75
2017-05-17T09:47:34.273Z,70
2017-05-17T09:48:43.247Z,75
2017-05-17T09:49:52.209Z,70
2017-05-17T09:51:01.224Z,70
2017-05-17T09:52:10.501Z,70
2017-05-17T09:53:19.469Z,70
2017-05-17T09:54:28.438Z,70
2017-05-17T09:55:37.401Z,70
2017-05-17T09:56:46.369Z,75
2017-05-17T09:57:55.642Z,70
2017-05-17T09:59:04.612Z,75
2017-05-17T10:00:13.584Z,75
2017-05-17T10:01:22.651Z,75
2017-05-17T10:02:31.619Z,75
2017-05-17T10:03:40.837Z,75
2017-05-17T10:04:49.803Z,75
2017-05-17T10:05:58.773Z,75
2017-05-17T10:07:07.826Z,75
2017-05-17T10:08:16.793Z,75
2017-05-17T10:09:26.063Z,75
2017-05-17T10:10:35.039Z,75
2017-05-17T10:11:44.012Z,75
2017-05-17T10:12:52.978Z,75
2017-05-17T10:14:01.953Z,75
2017-05-17T10:15:11.220Z,75
2017-05-17T10:16:20.186Z,75
2017-05-17T10:17:29.149Z,75
2017-05-17T10:18:38.451Z,70
2017-05-17T10:19:47.422Z,75
2017-05-17T10:20:56.639Z,75
2017-05-17T10:22:05.606Z,70
2017-05-17T10:23:14.670Z,65
2017-05-17T10:24:23.634Z,65
2017-05-17T10:25:32.688Z,65
2017-05-17T10:26:42.038Z,70
2017-05-17T10:27:51.188Z,70
2017-05-17T10:29:00.158Z,70
2017-05-17T10:30:09.130Z,70
2017-05-17T10:31:18.102Z,70
2017-05-17T10:32:27.777Z,70
2017-05-17T10:33:36.748Z,70
2017-05-17T10:34:45.713Z,65
2017-05-17T10:35:54.682Z,70
2017-05-17T10:37:03.647Z,70
2017-05-17T10:38:12.868Z,70
2017-05-17T10:39:21.837Z,70
2017-05-17T10:40:30.945Z,65
2017-05-17T10:41:39.936Z,65
2017-05-17T10:42:48.899Z,65
2017-05-17T10:43:58.165Z,65
2017-05-17T10:45:07.137Z,65
2017-05-17T10:46:16.099Z,65
2017-05-17T10:47:25.069Z,65
2017-05-17T10:48:34.036Z,65
2017-05-17T10:49:43.256Z,65
2017-05-17T10:50:52.226Z,65
2017-05-17T10:52:01.201Z,70
2017-05-17T10:53:10.493Z,75
2017-05-17T10:54:19.457Z,70
2017-05-17T10:55:28.673Z,70
2017-05-17T10:56:37.642Z,75
2017-05-17T10:57:46.663Z,75
2017-05-17T10:58:55.624Z,75
2017-05-17T11:00:04.682Z,75
2017-05-17T11:01:13.908Z,75
2017-05-17T11:02:22.872Z,75
2017-05-17T11:03:32.164Z,75
2017-05-17T11:04:41.130Z,75
2017-05-17T11:05:50.098Z,70
2017-05-17T11:06:59.314Z,75
2017-05-17T11:08:08.280Z,75
2017-05-17T11:09:17.252Z,75
2017-05-17T11:10:26.304Z,75
2017-05-17T11:11:35.275Z,75
2017-05-17T11:12:44.498Z,75
2017-05-17T11:13:53.461Z,75
2017-05-17T11:15:02.431Z,75
2017-05-17T11:16:11.399Z,75
2017-05-17T11:17:20.370Z,70
2017-05-17T11:18:29.644Z,70
2017-05-17T11:19:38.609Z,70
2017-05-17T11:20:47.670Z,70
2017-05-17T11:21:56.634Z,70
2017-05-17T11:23:05.602Z,75
2017-05-17T11:24:14.824Z,75
2017-05-17T11:25:23.794Z,70
2017-05-17T11:26:32.761Z,70
2017-05-17T11:27:41.726Z,70
2017-05-17T11:28:50.697Z,70
2017-05-17T11:30:00.291Z,70
2017-05-17T11:31:09.259Z,65
2017-05-17T11:32:18.232Z,70
2017-05-17T11:33:27.288Z,70
2017-05-17T11:34:36.255Z,70
2017-05-17T11:35:45.475Z,70
2017-05-17T11:36:54.531Z,70
2017-05-17T11:38:03.503Z,70
2017-05-17T11:39:12.561Z,70
2017-05-17T11:40:21.619Z,70
2017-05-17T11:41:30.837Z,70
2017-05-17T11:42:39.815Z,70
2017-05-17T11:43:48.784Z,70
2017-05-17T11:44:57.841Z,70
2017-05-17T11:46:06.808Z,70
2017-05-17T11:47:16.162Z,70
2017-05-17T11:48:25.127Z,70
2017-05-17T11:49:34.103Z,70
2017-05-17T11:50:43.081Z,70
2017-05-17T11:51:52.049Z,70
2017-05-17T11:53:01.318Z,70
2017-05-17T11:54:10.283Z,65
2017-05-17T11:55:19.248Z,65
2017-05-17T11:56:28.225Z,65
2017-05-17T11:57:37.194Z,65
2017-05-17T11:58:46.469Z,65
2017-05-17T11:59:55.437Z,65
2017-05-17T12:01:04.406Z,65
2017-05-17T12:02:13.461Z,65
2017-05-17T12:03:22.519Z,65
2017-05-17T12:04:31.789Z,60
2017-05-17T12:05:40.756Z,60
2017-05-17T12:06:49.732Z,60
2017-05-17T12:07:58.698Z,60
2017-05-17T12:09:07.670Z,60
2017-05-17T12:10:16.939Z,60
2017-05-17T12:11:25.993Z,60
2017-05-17T12:12:34.955Z,60
2017-05-17T12:13:44.252Z,60
2017-05-17T12:14:53.220Z,60
2017-05-17T12:16:02.548Z,60
2017-05-17T12:17:11.516Z,60
2017-05-17T12:18:20.480Z,60
2017-05-17T12:19:29.455Z,60
2017-05-17T12:20:38.416Z,60
2017-05-17T12:21:47.642Z,60
2017-05-17T12:22:56.935Z,60
2017-05-17T12:24:05.905Z,60
2017-05-17T12:25:14.880Z,60
2017-05-17T12:26:23.842Z,60
2017-05-17T12:27:33.163Z,60
2017-05-17T12:28:42.132Z,60
2017-05-17T12:29:51.185Z,60
2017-05-17T12:31:00.155Z,60
2017-05-17T12:32:09.123Z,60
2017-05-17T12:33:18.401Z,60
2017-05-17T12:34:27.702Z,60
2017-05-17T12:35:36.676Z,60
2017-05-17T12:36:45.644Z,60
2017-05-17T12:37:54.612Z,60
2017-05-17T12:39:03.886Z,60
2017-05-17T12:40:12.857Z,60
2017-05-17T12:41:21.829Z,60
2017-05-17T12:42:30.800Z,60
2017-05-17T12:43:39.771Z,65
2017-05-17T12:44:49.128Z,65
2017-05-17T12:45:58.096Z,75
2017-05-17T12:47:07.063Z,65
2017-05-17T12:48:16.034Z,65
2017-05-17T12:49:25.004Z,60
2017-05-17T12:50:34.274Z,60
2017-05-17T12:51:43.240Z,60
2017-05-17T12:52:52.221Z,60
2017-05-17T12:54:01.191Z,60
2017-05-17T12:55:10.213Z,65
2017-05-17T12:56:19.474Z,60
2017-05-17T12:57:28.451Z,60
2017-05-17T12:58:37.420Z,60
2017-05-17T12:59:46.387Z,60
2017-05-17T13:00:55.350Z,60
2017-05-17T13:02:04.618Z,65
2017-05-17T13:03:13.586Z,65
2017-05-17T13:04:22.565Z,65
2017-05-17T13:05:31.535Z,65
2017-05-17T13:06:40.501Z,65
2017-05-17T13:07:49.720Z,65
2017-05-17T13:08:59.021Z,65
2017-05-17T13:10:07.984Z,65
2017-05-17T13:11:16.948Z,65
2017-05-17T13:12:26.007Z,65
2017-05-17T13:13:35.276Z,65
2017-05-17T13:14:44.248Z,70
2017-05-17T13:15:53.214Z,70
2017-05-17T13:17:02.183Z,65
2017-05-17T13:18:11.155Z,65
2017-05-17T13:19:20.432Z,65
2017-05-17T13:20:29.399Z,45
2017-05-17T13:21:38.454Z,30
2017-05-17T13:22:47.514Z,50
2017-05-17T13:23:56.497Z,40
2017-05-17T13:25:05.718Z,65
2017-05-17T13:26:14.686Z,65
2017-05-17T13:27:23.828Z,65
2017-05-17T13:28:32.790Z,65
2017-05-17T13:29:41.758Z,65
2017-05-17T13:30:50.981Z,65
2017-05-17T13:31:59.967Z,65
2017-05-17T13:33:08.935Z,65
2017-05-17T13:34:17.923Z,65
2017-05-17T13:35:26.887Z,65
2017-05-17T13:36:36.165Z,65
2017-05-17T13:37:45.129Z,65
2017-05-17T13:38:54.104Z,65
2017-05-17T13:40:03.400Z,65
2017-05-17T13:41:12.365Z,65
2017-05-17T13:42:21.627Z,65
2017-05-17T13:43:30.597Z,65
2017-05-17T13:44:39.568Z,65
2017-05-17T13:45:48.537Z,65
2017-05-17T13:46:57.507Z,65
2017-05-17T13:48:06.725Z,65
2017-05-17T13:49:15.690Z,65
2017-05-17T13:50:24.652Z,65
2017-05-17T13:51:33.629Z,65
2017-05-17T13:52:42.596Z,65
2017-05-17T13:53:51.860Z,65
2017-05-17T13:55:00.835Z,65
2017-05-17T13:56:09.893Z,65
2017-05-17T13:57:18.905Z,65
2017-05-17T13:58:27.964Z,65
2017-05-17T13:59:37.234Z,65
2017-05-17T14:00:46.209Z,65
2017-05-17T14:01:55.171Z,65
2017-05-17T14:03:04.136Z,65
2017-05-17T14:04:13.098Z,65
2017-05-17T14:05:22.425Z,65
2017-05-17T14:06:31.394Z,65
2017-05-17T14:07:40.378Z,65
2017-05-17T14:08:49.349Z,65
2017-05-17T14:09:58.317Z,65
2017-05-17T14:11:07.690Z,65
2017-05-17T14:12:16.659Z,65
2017-05-17T14:13:25.633Z,65
2017-05-17T14:14:34.691Z,65
2017-05-17T14:15:43.658Z,65
2017-05-17T14:16:52.873Z,60
2017-05-17T14:18:01.839Z,60
2017-05-17T14:19:10.805Z,60
2017-05-17T14:20:19.782Z,60
2017-05-17T14:21:29.075Z,60
2017-05-17T14:22:38.338Z,60
2017-05-17T14:23:47.307Z,60
2017-05-17T14:24:56.273Z,60
2017-05-17T14:26:05.241Z,60
2017-05-17T14:27:14.293Z,60
2017-05-17T14:28:23.566Z,60
2017-05-17T14:29:32.548Z,65
2017-05-17T14:30:41.613Z,65
2017-05-17T14:31:50.579Z,65
2017-05-17T14:32:59.550Z,65
2017-05-17T14:34:08.816Z,65
2017-05-17T14:35:17.784Z,65
2017-05-17T14:36:26.745Z,60
2017-05-17T14:37:35.714Z,60
2017-05-17T14:38:44.688Z,60
2017-05-17T14:39:53.960Z,60
2017-05-17T14:41:02.929Z,60
2017-05-17T14:42:11.890Z,60
2017-05-17T14:43:20.864Z,60
2017-05-17T14:44:29.835Z,60
2017-05-17T14:45:39.113Z,55
2017-05-17T14:46:48.083Z,55
2017-05-17T14:47:57.054Z,55
2017-05-17T14:49:06.113Z,55
2017-05-17T14:50:15.080Z,55
2017-05-17T14:51:24.351Z,55
2017-05-17T14:52:33.423Z,55
2017-05-17T14:53:42.393Z,55
2017-05-17T14:54:51.358Z,55
2017-05-17T14:56:00.324Z,55
2017-05-17T14:57:09.596Z,50
2017-05-17T14:58:18.595Z,50
2017-05-17T14:59:27.565Z,50
2017-05-17T15:00:36.532Z,55
2017-05-17T15:01:45.927Z,55
2017-05-17T15:02:55.210Z,55
2017-05-17T15:04:04.258Z,50
2017-05-17T15:05:13.594Z,50
2017-05-17T15:06:22.775Z,50
2017-05-17T15:07:31.848Z,50
2017-05-17T15:08:41.411Z,50
2017-05-17T15:09:50.626Z,45
2017-05-17T15:10:59.755Z,45
2017-05-17T15:12:09.267Z,45
2017-05-17T15:13:18.476Z,45
2017-05-17T15:14:27.805Z,45
2017-05-17T15:15:37.299Z,45
2017-05-17T15:16:46.608Z,45
2017-05-17T15:17:55.897Z,45
2017-05-17T15:19:05.080Z,45
2017-05-17T15:20:14.658Z,40
2017-05-17T15:21:23.825Z,40
2017-05-17T15:22:33.250Z,40
2017-05-17T15:23:42.666Z,40
2017-05-17T15:24:51.758Z,35
2017-05-17T15:26:01.167Z,40
2017-05-17T15:27:10.302Z,40
2017-05-17T15:28:19.691Z,40
2017-05-17T15:29:28.835Z,40
2017-05-17T15:30:38.857Z,35
2017-05-17T15:31:48.368Z,35
2017-05-17T15:32:57.548Z,35
2017-05-17T15:34:06.980Z,35
2017-05-17T15:35:16.160Z,35
2017-05-17T15:36:25.388Z,35
2017-05-17T15:37:34.849Z,35
2017-05-17T15:38:44.028Z,35
2017-05-17T15:39:53.450Z,35
2017-05-17T15:41:02.780Z,35
2017-05-17T15:42:12.079Z,35
2017-05-17T15:43:21.356Z,35
2017-05-17T15:44:30.521Z,35
2017-05-17T15:45:39.582Z,35
2017-05-17T15:46:48.550Z,35
2017-05-17T15:47:57.576Z,35
2017-05-17T15:49:06.904Z,35
2017-05-17T15:50:15.876Z,35
2017-05-17T15:51:24.863Z,35
2017-05-17T15:52:33.834Z,35
2017-05-17T15:53:42.804Z,35
2017-05-17T15:54:52.088Z,35
2017-05-17T15:56:01.062Z,35
2017-05-17T15:57:10.432Z,35
2017-05-17T15:58:20.206Z,35
2017-05-17T15:59:29.424Z,35
2017-05-17T16:00:38.704Z,35
2017-05-17T16:01:47.676Z,35
2017-05-17T16:02:56.645Z,35
2017-05-17T16:04:05.609Z,35
2017-05-17T16:05:14.942Z,35
2017-05-17T16:06:24.334Z,35
2017-05-17T16:07:33.371Z,35
2017-05-17T16:08:42.711Z,35
2017-05-17T16:09:51.814Z,30
2017-05-17T16:11:01.010Z,30
2017-05-17T16:12:10.482Z,35
2017-05-17T16:13:19.972Z,30
2017-05-17T16:14:29.023Z,30
2017-05-17T16:15:38.099Z,30
2017-05-17T16:16:47.092Z,30
2017-05-17T16:17:56.369Z,30
2017-05-17T16:19:05.336Z,30
2017-05-17T16:20:14.421Z,30
2017-05-17T16:21:23.415Z,30
2017-05-17T16:22:32.401Z,30
2017-05-17T16:23:41.703Z,30
2017-05-17T16:24:50.699Z,30
2017-05-17T16:25:59.688Z,30
2017-05-17T16:27:08.732Z,30
2017-05-17T16:28:18.045Z,30
2017-05-17T16:29:27.291Z,30
2017-05-17T16:30:36.277Z,30
2017-05-17T16:31:45.270Z,30
2017-05-17T16:32:54.365Z,25
2017-05-17T16:34:03.706Z,25